createdAt,value
2023-04-09T00:00:47.147Z,5.90
2023-04-09T00:03:16.506Z,5.50
2023-04-09T00:05:47.685Z,5.00
2023-04-09T00:08:18.935Z,5.40
2023-04-09T00:10:50.161Z,5.30
2023-04-09T00:13:28.343Z,4.53
2023-04-09T00:16:07.993Z,4.93
2023-04-09T00:18:37.537Z,4.00
2023-04-09T00:21:09.971Z,5.23
2023-04-09T00:23:41.219Z,4.90
2023-04-09T00:26:11.974Z,4.27
2023-04-09T00:28:42.799Z,4.40
2023-04-09T00:31:16.283Z,2.87
2023-04-09T00:33:46.312Z,2.87
2023-04-09T00:36:17.549Z,3.40
2023-04-09T00:38:47.610Z,4.80
2023-04-09T00:41:18.232Z,5.03
2023-04-09T00:43:47.654Z,4.70
2023-04-09T00:46:23.815Z,4.23
2023-04-09T00:48:55.604Z,2.30
2023-04-09T00:51:25.219Z,2.30
2023-04-09T00:53:56.780Z,1.60
2023-04-09T00:56:25.858Z,2.60
2023-04-09T00:58:56.295Z,1.70
2023-04-09T01:01:28.877Z,1.80
2023-04-09T01:03:58.825Z,1.97
2023-04-09T01:06:32.270Z,2.70
2023-04-09T01:09:05.676Z,3.73
2023-04-09T01:11:38.519Z,3.90
2023-04-09T01:14:13.040Z,3.43
2023-04-09T01:16:46.308Z,2.40
2023-04-09T01:19:24.617Z,2.40
2023-04-09T01:21:56.918Z,1.90
2023-04-09T01:24:35.052Z,2.87
2023-04-09T01:27:09.916Z,3.10
2023-04-09T01:29:42.223Z,3.00
2023-04-09T01:32:11.878Z,2.60
2023-04-09T01:34:41.493Z,3.23
2023-04-09T01:37:11.374Z,2.50
2023-04-09T01:39:42.719Z,1.77
2023-04-09T01:42:15.860Z,1.90
2023-04-09T01:44:48.057Z,1.80
2023-04-09T01:47:20.648Z,2.43
2023-04-09T01:49:51.197Z,2.40
2023-04-09T01:52:20.271Z,2.33
2023-04-09T01:54:49.140Z,1.97
2023-04-09T01:57:19.403Z,1.90
2023-04-09T01:59:50.937Z,2.00
2023-04-09T02:02:23.672Z,1.80
2023-04-09T02:04:56.738Z,1.93
2023-04-09T02:07:29.995Z,1.63
2023-04-09T02:10:01.582Z,2.03
2023-04-09T02:12:35.310Z,1.73
2023-04-09T02:15:08.474Z,1.40
2023-04-09T02:17:40.441Z,1.60
2023-04-09T02:20:11.754Z,1.70
2023-04-09T02:22:42.751Z,1.30
2023-04-09T02:25:13.027Z,1.70
2023-04-09T02:27:44.638Z,1.87
2023-04-09T02:30:17.139Z,1.63
2023-04-09T02:32:48.130Z,1.83
2023-04-09T02:35:17.302Z,1.60
2023-04-09T02:37:46.324Z,1.70
2023-04-09T02:40:17.953Z,1.40
2023-04-09T02:42:50.040Z,1.70
2023-04-09T02:45:21.434Z,1.30
2023-04-09T02:47:54.154Z,1.53
2023-04-09T02:50:23.544Z,2.10
2023-04-09T02:53:01.128Z,2.00
2023-04-09T02:55:31.111Z,1.73
2023-04-09T02:58:01.095Z,1.90
2023-04-09T03:00:32.016Z,1.63
2023-04-09T03:03:01.948Z,1.80
2023-04-09T03:05:32.030Z,1.80
2023-04-09T03:08:02.599Z,1.67
2023-04-09T03:10:32.957Z,1.50
2023-04-09T03:13:05.123Z,1.70
2023-04-09T03:15:36.075Z,1.53
2023-04-09T03:18:06.135Z,2.13
2023-04-09T03:20:35.957Z,1.70
2023-04-09T03:23:07.298Z,1.60
2023-04-09T03:25:37.274Z,1.63
2023-04-09T03:28:11.937Z,1.60
2023-04-09T03:30:43.322Z,1.70
2023-04-09T03:33:12.764Z,1.70
2023-04-09T03:35:44.322Z,1.80
2023-04-09T03:38:17.202Z,1.80
2023-04-09T03:40:46.893Z,1.63
2023-04-09T03:43:17.996Z,1.77
2023-04-09T03:45:51.572Z,1.90
2023-04-09T03:48:25.745Z,1.67
2023-04-09T03:50:55.895Z,1.80
2023-04-09T03:53:25.733Z,1.70
2023-04-09T03:55:55.549Z,1.60
2023-04-09T03:58:25.792Z,1.70
2023-04-09T04:00:57.224Z,1.80
2023-04-09T04:03:28.161Z,1.93
2023-04-09T04:06:02.180Z,1.73
2023-04-09T04:08:32.498Z,1.60
2023-04-09T04:11:07.361Z,1.60
2023-04-09T04:13:37.119Z,2.13
2023-04-09T04:16:11.014Z,1.90
2023-04-09T04:18:41.523Z,1.70
2023-04-09T04:21:15.742Z,1.80
2023-04-09T04:23:45.803Z,1.50
2023-04-09T04:26:15.737Z,1.53
2023-04-09T04:28:45.109Z,1.63
2023-04-09T04:31:17.853Z,1.47
2023-04-09T04:33:47.454Z,1.23
2023-04-09T04:36:18.011Z,1.73
2023-04-09T04:38:51.444Z,1.50
2023-04-09T04:41:23.434Z,1.40
2023-04-09T04:43:53.294Z,1.30
2023-04-09T04:46:25.517Z,1.27
2023-04-09T04:48:57.115Z,1.70
2023-04-09T04:51:29.580Z,1.40
2023-04-09T04:54:00.524Z,1.70
2023-04-09T04:56:29.983Z,2.20
2023-04-09T04:58:59.296Z,1.70
2023-04-09T05:01:31.647Z,1.60
2023-04-09T05:04:03.344Z,1.80
2023-04-09T05:06:49.208Z,1.60
2023-04-09T05:09:21.864Z,1.87
2023-04-09T05:11:52.302Z,1.50
2023-04-09T05:14:25.612Z,1.30
2023-04-09T05:16:57.128Z,1.37
2023-04-09T05:19:27.663Z,1.30
2023-04-09T05:21:59.869Z,1.30
2023-04-09T05:24:31.479Z,1.23
2023-04-09T05:27:01.563Z,1.40
2023-04-09T05:29:31.256Z,1.60
2023-04-09T05:32:03.846Z,1.60
2023-04-09T05:34:36.976Z,1.47
2023-04-09T05:37:09.048Z,1.23
2023-04-09T05:39:38.760Z,1.73
2023-04-09T05:42:07.863Z,1.70
2023-04-09T05:44:39.409Z,1.67
2023-04-09T05:47:12.355Z,1.80
2023-04-09T05:49:43.592Z,2.00
2023-04-09T05:52:12.918Z,2.30
2023-04-09T05:54:42.676Z,2.40
2023-04-09T05:57:12.465Z,2.83
2023-04-09T05:59:42.338Z,2.57
2023-04-09T06:02:13.380Z,2.70
2023-04-09T06:04:43.935Z,3.00
2023-04-09T06:07:13.854Z,2.60
2023-04-09T06:09:44.964Z,2.30
2023-04-09T06:12:27.332Z,2.77
2023-04-09T06:15:10.754Z,3.33
2023-04-09T06:17:43.017Z,3.13
2023-04-09T06:20:26.908Z,3.43
2023-04-09T06:23:02.729Z,3.63
2023-04-09T06:25:37.296Z,3.60
2023-04-09T06:28:07.059Z,3.23
2023-04-09T06:30:37.277Z,2.53
2023-04-09T06:33:09.481Z,3.83
2023-04-09T06:35:38.935Z,3.57
2023-04-09T06:38:10.582Z,3.40
2023-04-09T06:40:40.743Z,3.43
2023-04-09T06:43:09.946Z,3.33
2023-04-09T06:45:41.298Z,3.13
2023-04-09T06:48:15.743Z,3.37
2023-04-09T06:50:45.929Z,3.20
2023-04-09T06:53:22.425Z,3.20
2023-04-09T06:55:52.721Z,3.17
2023-04-09T06:58:22.333Z,3.17
2023-04-09T07:00:51.606Z,3.20
2023-04-09T07:03:23.825Z,2.63
2023-04-09T07:06:11.280Z,2.73
2023-04-09T07:08:53.073Z,2.50
2023-04-09T07:11:24.123Z,2.43
2023-04-09T07:13:53.355Z,2.53
2023-04-09T07:16:25.551Z,2.57
2023-04-09T07:18:56.202Z,2.60
2023-04-09T07:21:25.060Z,2.37
2023-04-09T07:23:54.496Z,2.30
2023-04-09T07:26:24.104Z,2.27
2023-04-09T07:28:54.825Z,1.80
2023-04-09T07:31:24.446Z,2.10
2023-04-09T07:33:54.530Z,2.10
2023-04-09T07:36:28.686Z,2.10
2023-04-09T07:38:58.216Z,1.80
2023-04-09T07:41:26.704Z,1.87
2023-04-09T07:43:56.968Z,1.50
2023-04-09T07:46:28.767Z,2.10
2023-04-09T07:48:59.037Z,1.20
2023-04-09T07:51:31.602Z,1.50
2023-04-09T07:54:01.644Z,1.07
2023-04-09T07:56:33.304Z,0.90
2023-04-09T07:59:05.289Z,0.80
2023-04-09T08:01:36.961Z,0.90
2023-04-09T08:04:05.969Z,0.80
2023-04-09T08:06:47.031Z,0.80
2023-04-09T08:09:20.680Z,0.90
2023-04-09T08:11:51.044Z,0.90
2023-04-09T08:14:20.843Z,1.00
2023-04-09T08:16:50.950Z,0.70
2023-04-09T08:19:21.753Z,0.63
2023-04-09T08:21:54.105Z,0.80
2023-04-09T08:24:23.956Z,1.00
2023-04-09T08:26:54.729Z,0.80
2023-04-09T08:29:24.046Z,0.80
2023-04-09T08:31:54.633Z,0.93
2023-04-09T08:34:27.621Z,0.80
2023-04-09T08:36:58.456Z,0.83
2023-04-09T08:39:30.472Z,0.80
2023-04-09T08:42:03.016Z,0.63
2023-04-09T08:44:33.824Z,1.00
2023-04-09T08:47:03.941Z,0.70
2023-04-09T08:49:32.764Z,0.60
2023-04-09T08:52:19.961Z,0.60
2023-04-09T08:54:49.203Z,0.90
2023-04-09T08:57:18.726Z,0.80
2023-04-09T08:59:48.363Z,0.60
2023-04-09T09:02:17.873Z,0.83
2023-04-09T09:04:47.567Z,0.77
2023-04-09T09:07:18.436Z,0.70
2023-04-09T09:10:08.017Z,0.77
2023-04-09T09:12:43.507Z,0.80
2023-04-09T09:15:28.173Z,0.80
2023-04-09T09:17:59.263Z,0.80
2023-04-09T09:20:30.489Z,0.90
2023-04-09T09:23:02.898Z,0.60
2023-04-09T09:25:32.588Z,0.60
2023-04-09T09:28:11.651Z,0.97
2023-04-09T09:30:51.165Z,0.60
2023-04-09T09:33:25.712Z,0.90
2023-04-09T09:36:04.477Z,0.90
2023-04-09T09:39:02.390Z,0.70
2023-04-09T09:41:48.530Z,0.80
2023-04-09T09:48:00.341Z,0.90
2023-04-09T09:50:33.163Z,0.90
2023-04-09T09:53:04.788Z,0.80
2023-04-09T09:55:36.595Z,0.83
2023-04-09T09:58:12.715Z,0.80
2023-04-09T10:00:46.009Z,0.70
2023-04-09T10:03:19.553Z,0.80
2023-04-09T10:05:52.475Z,0.77
2023-04-09T10:08:22.164Z,0.80
2023-04-09T10:10:57.087Z,0.80
2023-04-09T10:13:30.476Z,0.70
2023-04-09T10:16:01.064Z,0.73
2023-04-09T10:18:30.232Z,0.93
2023-04-09T10:21:10.516Z,0.80
2023-04-09T10:23:41.920Z,0.83
2023-04-09T10:26:13.344Z,0.70
2023-04-09T10:28:45.790Z,0.90
2023-04-09T10:31:15.532Z,0.73
2023-04-09T10:33:46.549Z,0.60
2023-04-09T10:36:15.176Z,0.70
2023-04-09T10:38:49.426Z,0.70
2023-04-09T10:41:25.340Z,0.93
2023-04-09T10:43:57.657Z,0.70
2023-04-09T10:46:31.504Z,0.80
2023-04-09T10:49:11.196Z,0.80
2023-04-09T10:51:45.612Z,0.90
2023-04-09T10:54:33.357Z,0.80
2023-04-09T10:57:20.461Z,0.70
2023-04-09T10:59:54.014Z,0.70
2023-04-09T11:02:47.913Z,0.90
2023-04-09T11:05:22.565Z,0.80
2023-04-09T11:07:56.431Z,0.73
2023-04-09T11:10:25.525Z,1.00
2023-04-09T11:12:55.900Z,0.80
2023-04-09T11:15:26.794Z,0.70
2023-04-09T11:17:58.046Z,0.80
2023-04-09T11:20:28.379Z,0.80
2023-04-09T11:22:59.202Z,0.70
2023-04-09T11:25:30.763Z,0.87
2023-04-09T11:28:00.060Z,0.80
2023-04-09T11:30:31.331Z,0.80
2023-04-09T11:33:01.069Z,0.80
2023-04-09T11:35:30.898Z,0.90
2023-04-09T11:38:00.703Z,0.70
2023-04-09T11:40:30.494Z,0.80
2023-04-09T11:43:01.053Z,1.10
2023-04-09T11:45:34.338Z,1.40
2023-04-09T11:48:05.589Z,1.40
2023-04-09T11:50:35.187Z,1.27
2023-04-09T11:53:04.838Z,1.30
2023-04-09T11:55:34.689Z,1.23
2023-04-09T11:58:06.306Z,0.90
2023-04-09T12:00:36.867Z,1.03
2023-04-09T12:03:09.946Z,1.00
2023-04-09T12:05:42.803Z,1.00
2023-04-09T12:08:14.719Z,0.73
2023-04-09T12:10:46.607Z,0.80
2023-04-09T12:13:17.400Z,0.80
2023-04-09T12:15:51.080Z,0.90
2023-04-09T12:18:20.761Z,0.80
2023-04-09T12:20:50.492Z,0.70
2023-04-09T12:23:19.907Z,0.70
2023-04-09T12:25:52.445Z,1.00
2023-04-09T12:28:21.622Z,0.60
2023-04-09T12:30:54.848Z,1.00
2023-04-09T12:33:23.795Z,0.70
2023-04-09T12:35:53.063Z,1.10
2023-04-09T12:38:22.512Z,0.70
2023-04-09T12:40:52.256Z,1.17
2023-04-09T12:43:23.122Z,0.73
2023-04-09T12:45:54.626Z,0.87
2023-04-09T12:48:24.375Z,0.90
2023-04-09T12:50:54.097Z,1.20
2023-04-09T12:53:23.485Z,0.90
2023-04-09T12:55:54.714Z,0.82
2023-04-09T12:58:23.820Z,1.05
2023-04-09T13:00:54.879Z,1.50
2023-04-09T13:03:26.188Z,1.02
2023-04-09T13:05:57.214Z,1.10
2023-04-09T13:08:28.681Z,0.82
2023-04-09T13:10:58.700Z,1.20
2023-04-09T13:13:31.574Z,1.02
2023-04-09T13:16:03.766Z,1.00
2023-04-09T13:18:34.439Z,1.10
2023-04-09T13:21:03.550Z,0.93
2023-04-09T13:23:33.552Z,1.00
2023-04-09T13:26:03.000Z,0.90
2023-04-09T13:28:33.423Z,1.00
2023-04-09T13:31:06.900Z,1.02
2023-04-09T13:33:36.286Z,0.88
2023-04-09T13:36:06.082Z,0.90
2023-04-09T13:38:35.800Z,0.90
2023-04-09T13:41:04.843Z,0.90
2023-04-09T13:43:33.608Z,0.90
2023-04-09T13:46:05.636Z,0.90
2023-04-09T13:48:34.435Z,0.80
2023-04-09T13:51:04.452Z,1.08
2023-04-09T13:53:34.732Z,1.08
2023-04-09T13:56:03.720Z,0.70
2023-04-09T13:58:33.249Z,1.20
2023-04-09T14:01:04.329Z,1.23
2023-04-09T14:03:41.153Z,0.90
2023-04-09T14:06:10.929Z,0.90
2023-04-09T14:08:40.535Z,0.90
2023-04-09T14:11:11.329Z,0.80
2023-04-09T14:13:42.148Z,0.90
2023-04-09T14:16:12.595Z,0.77
2023-04-09T14:18:41.941Z,0.90
2023-04-09T14:21:11.599Z,0.70
2023-04-09T14:23:42.239Z,0.73
2023-04-09T14:26:11.545Z,0.90
2023-04-09T14:28:40.782Z,0.80
2023-04-09T14:31:10.480Z,0.90
2023-04-09T14:33:42.145Z,0.60
2023-04-09T14:36:38.423Z,0.70
2023-04-09T14:39:12.760Z,0.80
2023-04-09T14:41:42.576Z,0.90
2023-04-09T14:44:15.289Z,0.70
2023-04-09T14:46:46.285Z,0.67
2023-04-09T14:49:18.275Z,0.90
2023-04-09T14:51:48.173Z,0.80
2023-04-09T14:54:17.889Z,0.70
2023-04-09T14:56:47.401Z,0.70
2023-04-09T14:59:16.682Z,0.70
2023-04-09T15:01:45.997Z,0.70
2023-04-09T15:04:19.062Z,0.80
2023-04-09T15:06:48.645Z,0.73
2023-04-09T15:09:17.808Z,0.80
2023-04-09T15:11:47.746Z,0.67
2023-04-09T15:14:17.650Z,0.80
2023-04-09T15:16:47.050Z,0.70
2023-04-09T15:19:18.369Z,0.77
2023-04-09T15:21:47.666Z,0.87
2023-04-09T15:24:17.347Z,0.77
2023-04-09T15:26:46.370Z,0.80
2023-04-09T15:29:17.412Z,0.70
2023-04-09T15:31:47.000Z,0.80
2023-04-09T15:34:18.436Z,0.80
2023-04-09T15:36:48.360Z,0.70
2023-04-09T15:39:18.569Z,0.80
2023-04-09T15:41:48.587Z,0.73
2023-04-09T15:44:19.921Z,0.73
2023-04-09T15:46:49.446Z,0.87
2023-04-09T15:49:20.721Z,0.77
2023-04-09T15:51:51.188Z,0.80
2023-04-09T15:54:21.470Z,0.90
2023-04-09T15:56:53.657Z,0.73
2023-04-09T15:59:24.379Z,0.60
2023-04-09T16:01:56.035Z,0.80
2023-04-09T16:04:27.487Z,0.80
2023-04-09T16:06:57.912Z,0.80
2023-04-09T16:09:28.649Z,0.80
2023-04-09T16:11:58.108Z,0.80
2023-04-09T16:14:28.688Z,0.70
2023-04-09T16:16:58.701Z,0.90
2023-04-09T16:19:35.160Z,0.90
2023-04-09T16:22:04.289Z,0.90
2023-04-09T16:24:34.346Z,0.90
2023-04-09T16:27:04.713Z,0.87
2023-04-09T16:29:34.775Z,0.90
2023-04-09T16:32:06.840Z,0.80
2023-04-09T16:34:38.135Z,0.77
2023-04-09T16:37:09.819Z,0.90
2023-04-09T16:39:41.287Z,0.80
2023-04-09T16:42:13.206Z,0.80
2023-04-09T16:44:44.133Z,0.90
2023-04-09T16:47:14.318Z,1.00
2023-04-09T16:49:46.518Z,0.90
2023-04-09T16:52:16.049Z,0.83
2023-04-09T16:54:47.796Z,0.73
2023-04-09T16:57:17.552Z,0.80
2023-04-09T16:59:48.448Z,1.03
2023-04-09T17:02:22.065Z,0.87
2023-04-09T17:04:54.298Z,1.00
2023-04-09T17:07:25.406Z,0.90
2023-04-09T17:09:55.103Z,1.17
2023-04-09T17:12:25.470Z,1.10
2023-04-09T17:14:54.992Z,0.90
2023-04-09T17:17:27.315Z,1.00
2023-04-09T17:20:01.803Z,1.00
2023-04-09T17:22:38.452Z,1.20
2023-04-09T17:25:09.466Z,1.10
2023-04-09T17:27:44.057Z,1.00
2023-04-09T17:30:14.332Z,1.03
2023-04-09T17:32:44.322Z,0.90
2023-04-09T17:35:14.769Z,1.20
2023-04-09T17:37:44.504Z,1.00
2023-04-09T17:40:15.328Z,1.03
2023-04-09T17:42:45.058Z,1.00
2023-04-09T17:45:14.893Z,1.60
2023-04-09T17:47:44.562Z,1.10
2023-04-09T17:50:15.369Z,1.87
2023-04-09T17:52:47.135Z,1.30
2023-04-09T17:55:23.674Z,1.20
2023-04-09T17:57:53.576Z,1.40
2023-04-09T18:00:22.822Z,1.40
2023-04-09T18:02:55.092Z,1.20
2023-04-09T18:05:26.832Z,1.13
2023-04-09T18:07:57.450Z,1.63
2023-04-09T18:10:30.440Z,1.43
2023-04-09T18:13:02.628Z,1.63
2023-04-09T18:15:32.985Z,1.53
2023-04-09T18:18:02.710Z,1.53
2023-04-09T18:20:33.537Z,1.67
2023-04-09T18:23:03.555Z,1.93
2023-04-09T18:25:32.124Z,1.80
2023-04-09T18:28:02.368Z,2.30
2023-04-09T18:30:32.107Z,1.90
2023-04-09T18:33:01.909Z,2.07
2023-04-09T18:35:34.115Z,1.80
2023-04-09T18:38:03.267Z,2.10
2023-04-09T18:40:32.465Z,2.03
2023-04-09T18:43:02.119Z,2.33
2023-04-09T18:45:42.910Z,2.13
2023-04-09T18:48:13.864Z,2.33
2023-04-09T18:50:44.625Z,2.33
2023-04-09T18:53:14.272Z,2.50
2023-04-09T18:55:44.775Z,2.40
2023-04-09T18:58:18.120Z,2.40
2023-04-09T19:00:51.761Z,2.40
2023-04-09T19:03:24.782Z,2.50
2023-04-09T19:05:56.217Z,2.20
2023-04-09T19:08:26.051Z,2.07
2023-04-09T19:10:56.463Z,2.17
2023-04-09T19:13:35.441Z,1.80
2023-04-09T19:16:15.793Z,2.20
2023-04-09T19:18:48.407Z,2.27
2023-04-09T19:21:19.553Z,2.00
2023-04-09T19:23:50.174Z,2.20
2023-04-09T19:26:20.939Z,2.30
2023-04-09T19:28:50.201Z,2.00
2023-04-09T19:31:20.300Z,1.73
2023-04-09T19:33:50.356Z,1.90
2023-04-09T19:36:23.107Z,2.03
2023-04-09T19:38:52.678Z,2.30
2023-04-09T19:41:24.542Z,1.90
2023-04-09T19:43:55.040Z,2.73
2023-04-09T19:46:24.852Z,1.87
2023-04-09T19:48:55.204Z,1.77
2023-04-09T19:51:27.783Z,1.70
2023-04-09T19:53:57.125Z,1.90
2023-04-09T19:56:27.299Z,1.50
2023-04-09T19:59:03.420Z,1.90
2023-04-09T20:01:34.746Z,1.47
2023-04-09T20:04:05.835Z,1.80
2023-04-09T20:06:40.958Z,1.50
2023-04-09T20:09:12.651Z,1.60
2023-04-09T20:11:43.406Z,1.50
2023-04-09T20:14:13.628Z,1.70
2023-04-09T20:16:43.107Z,1.67
2023-04-09T20:19:12.492Z,1.43
2023-04-09T20:21:44.171Z,1.60
2023-04-09T20:24:13.197Z,1.60
2023-04-09T20:26:42.428Z,1.50
2023-04-09T20:29:36.178Z,1.50
2023-04-09T20:32:07.457Z,1.40
2023-04-09T20:34:37.240Z,1.40
2023-04-09T20:37:09.649Z,1.30
2023-04-09T20:39:41.785Z,1.73
2023-04-09T20:42:13.159Z,1.20
2023-04-09T20:44:43.490Z,1.30
2023-04-09T20:47:12.596Z,1.23
2023-04-09T20:49:48.202Z,1.37
2023-04-09T20:52:20.673Z,1.40
2023-04-09T20:54:51.264Z,1.30
2023-04-09T20:57:20.628Z,1.20
2023-04-09T20:59:53.323Z,1.30
2023-04-09T21:02:25.656Z,1.20
2023-04-09T21:05:01.461Z,1.40
2023-04-09T21:07:34.362Z,1.20
2023-04-09T21:10:05.764Z,1.60
2023-04-09T21:12:34.789Z,1.03
2023-04-09T21:15:03.835Z,1.23
2023-04-09T21:17:33.176Z,1.10
2023-04-09T21:20:04.485Z,1.20
2023-04-09T21:22:36.345Z,1.20
2023-04-09T21:25:07.165Z,1.20
2023-04-09T21:27:38.352Z,1.20
2023-04-09T21:30:10.690Z,1.00
2023-04-09T21:32:40.922Z,1.10
2023-04-09T21:35:10.980Z,1.10
2023-04-09T21:37:44.643Z,1.23
2023-04-09T21:40:17.359Z,1.20
2023-04-09T21:42:48.592Z,1.40
2023-04-09T21:45:18.039Z,1.30
2023-04-09T21:47:51.693Z,1.13
2023-04-09T21:50:23.461Z,1.20
2023-04-09T21:52:55.768Z,1.20
2023-04-09T21:55:27.259Z,1.40
2023-04-09T21:57:57.479Z,1.23
2023-04-09T22:00:34.949Z,1.07
2023-04-09T22:03:05.494Z,1.27
2023-04-09T22:05:35.868Z,1.30
2023-04-09T22:08:09.161Z,1.10
2023-04-09T22:10:40.992Z,1.13
2023-04-09T22:13:12.516Z,1.30
2023-04-09T22:15:44.741Z,1.07
2023-04-09T22:18:15.046Z,1.40
2023-04-09T22:20:45.302Z,1.20
2023-04-09T22:23:16.563Z,1.50
2023-04-09T22:25:47.279Z,1.20
2023-04-09T22:28:16.681Z,1.30
2023-04-09T22:30:48.797Z,1.50
2023-04-09T22:33:18.116Z,1.37
2023-04-09T22:35:49.195Z,1.50
2023-04-09T22:38:21.914Z,1.30
2023-04-09T22:40:52.044Z,1.50
2023-04-09T22:43:23.440Z,1.10
2023-04-09T22:45:54.920Z,1.20
2023-04-09T22:48:26.419Z,1.40
2023-04-09T22:50:57.979Z,1.40
2023-04-09T22:53:30.205Z,1.30
2023-04-09T22:56:00.631Z,1.27
2023-04-09T22:58:30.584Z,1.57
2023-04-09T23:01:02.377Z,1.40
2023-04-09T23:03:31.465Z,1.30
2023-04-09T23:06:02.255Z,1.37
2023-04-09T23:08:34.232Z,1.60
2023-04-09T23:11:05.661Z,1.33
2023-04-09T23:13:36.978Z,1.40
2023-04-09T23:16:07.074Z,1.20
2023-04-09T23:18:38.497Z,1.30
2023-04-09T23:21:08.445Z,1.40
2023-04-09T23:23:40.696Z,1.47
2023-04-09T23:26:09.943Z,1.10
2023-04-09T23:28:39.075Z,1.30
2023-04-09T23:31:10.212Z,1.30
2023-04-09T23:33:41.703Z,1.40
2023-04-09T23:36:11.065Z,1.17
2023-04-09T23:38:45.798Z,1.40
2023-04-09T23:41:15.100Z,1.17
2023-04-09T23:43:45.557Z,1.33
2023-04-09T23:46:16.776Z,1.33
2023-04-09T23:48:46.855Z,1.30
2023-04-09T23:51:20.542Z,1.20
2023-04-09T23:53:53.924Z,1.20
2023-04-09T23:56:24.172Z,1.10
2023-04-09T23:58:55.053Z,1.13
